SDM1296 USTR-USMM
Flight info
| Callsign | SDM1296 |
|---|---|
| Flight time | 1h 19m |
| Altitude | 35000 |
| Route | K0893F350 DCT LAKED L165 LUGIK T827 RIKBI DCT |
| Aircraft | B77W/H-SDE1E2E3FGHIJ2J3J4J5M1RWXY/LB1D1 |
Departure
| Time | 2026-04-29 16:43 |
|---|---|
| Airport | Roshchino International Airport (USTR) |
Arrival
| Time | 2026-04-29 18:02 |
|---|---|
| Airport | Nadym Airport (USMM) |
| Time | Latitude | Longitude | Altitude | Speed | Heading |
|---|---|---|---|---|---|
| 2026-04-29 16:02 | 57.17846 | 65.35102 | 391 ft | 0 kts | 44° |
| 2026-04-29 16:30 | 57.17844 | 65.35098 | 391 ft | 0 kts | 43° |
| 2026-04-29 16:30 | 57.17835 | 65.35087 | 391 ft | 2 kts | 13° |
| 2026-04-29 16:31 | 57.17819 | 65.35086 | 391 ft | 2 kts | 342° |
| 2026-04-29 16:31 | 57.17806 | 65.35100 | 391 ft | 2 kts | 312° |
| 2026-04-29 16:31 | 57.17797 | 65.35120 | 391 ft | 2 kts | 309° |
| 2026-04-29 16:31 | 57.17786 | 65.35141 | 391 ft | 2 kts | 313° |
| 2026-04-29 16:32 | 57.17776 | 65.35161 | 391 ft | 2 kts | 314° |
| 2026-04-29 16:32 | 57.17770 | 65.35173 | 391 ft | 0 kts | 314° |
| 2026-04-29 16:35 | 57.17771 | 65.35170 | 391 ft | 1 kts | 314° |
| 2026-04-29 16:36 | 57.17789 | 65.35137 | 391 ft | 5 kts | 315° |
| 2026-04-29 16:36 | 57.17827 | 65.35068 | 391 ft | 9 kts | 315° |
| 2026-04-29 16:36 | 57.17880 | 65.34969 | 391 ft | 12 kts | 314° |
| 2026-04-29 16:36 | 57.17948 | 65.34842 | 391 ft | 15 kts | 314° |
| 2026-04-29 16:37 | 57.18029 | 65.34692 | 391 ft | 17 kts | 314° |
| 2026-04-29 16:37 | 57.18120 | 65.34522 | 391 ft | 19 kts | 314° |
| 2026-04-29 16:37 | 57.18222 | 65.34334 | 391 ft | 21 kts | 315° |
| 2026-04-29 16:37 | 57.18293 | 65.34203 | 391 ft | 22 kts | 315° |
| 2026-04-29 16:38 | 57.18443 | 65.33921 | 391 ft | 22 kts | 313° |
| 2026-04-29 16:38 | 57.18551 | 65.33721 | 391 ft | 21 kts | 315° |
| 2026-04-29 16:38 | 57.18617 | 65.33525 | 391 ft | 17 kts | 274° |
| 2026-04-29 16:38 | 57.18592 | 65.33319 | 391 ft | 16 kts | 232° |
| 2026-04-29 16:39 | 57.18518 | 65.33170 | 391 ft | 15 kts | 228° |
| 2026-04-29 16:39 | 57.18478 | 65.33000 | 391 ft | 14 kts | 262° |
| 2026-04-29 16:39 | 57.18473 | 65.32819 | 391 ft | 13 kts | 268° |
| 2026-04-29 16:39 | 57.18470 | 65.32650 | 391 ft | 12 kts | 268° |
| 2026-04-29 16:40 | 57.18467 | 65.32488 | 391 ft | 12 kts | 268° |
| 2026-04-29 16:40 | 57.18464 | 65.32333 | 391 ft | 12 kts | 268° |
| 2026-04-29 16:40 | 57.18475 | 65.32185 | 391 ft | 11 kts | 295° |
| 2026-04-29 16:40 | 57.18528 | 65.32079 | 391 ft | 11 kts | 319° |
| 2026-04-29 16:41 | 57.18584 | 65.31986 | 391 ft | 10 kts | 318° |
| 2026-04-29 16:41 | 57.18641 | 65.31894 | 391 ft | 10 kts | 316° |
| 2026-04-29 16:41 | 57.18692 | 65.31795 | 391 ft | 10 kts | 297° |
| 2026-04-29 16:41 | 57.18680 | 65.31677 | 391 ft | 10 kts | 233° |
| 2026-04-29 16:42 | 57.18629 | 65.31565 | 391 ft | 16 kts | 229° |
| 2026-04-29 16:42 | 57.18509 | 65.31320 | 391 ft | 47 kts | 227° |
| 2026-04-29 16:42 | 57.18114 | 65.30514 | 391 ft | 121 kts | 227° |
| 2026-04-29 16:42 | 57.17394 | 65.29062 | 448 ft | 177 kts | 227° |
| 2026-04-29 16:43 | 57.16546 | 65.27329 | 998 ft | 190 kts | 233° |
| 2026-04-29 16:43 | 57.15758 | 65.25458 | 2070 ft | 189 kts | 238° |
| 2026-04-29 16:43 | 57.15247 | 65.23111 | 2822 ft | 207 kts | 262° |
| 2026-04-29 16:43 | 57.15339 | 65.20388 | 3586 ft | 226 kts | 285° |
| 2026-04-29 16:44 | 57.16135 | 65.17928 | 4344 ft | 237 kts | 314° |
| 2026-04-29 16:44 | 57.17710 | 65.16575 | 4753 ft | 267 kts | 350° |
| 2026-04-29 16:44 | 57.19552 | 65.17105 | 5429 ft | 280 kts | 15° |
| 2026-04-29 16:44 | 57.21393 | 65.18383 | 6260 ft | 284 kts | 18° |
| 2026-04-29 16:45 | 57.23236 | 65.19714 | 7020 ft | 289 kts | 18° |
| 2026-04-29 16:45 | 57.25140 | 65.21093 | 7817 ft | 292 kts | 18° |
| 2026-04-29 16:45 | 57.27050 | 65.22473 | 8577 ft | 297 kts | 17° |
| 2026-04-29 16:45 | 57.28981 | 65.23870 | 9311 ft | 302 kts | 18° |
| 2026-04-29 16:46 | 57.30977 | 65.25321 | 10066 ft | 305 kts | 18° |
| 2026-04-29 16:46 | 57.33020 | 65.26806 | 10543 ft | 320 kts | 17° |
| 2026-04-29 16:46 | 57.35202 | 65.28386 | 10894 ft | 339 kts | 18° |
| 2026-04-29 16:46 | 57.37572 | 65.30111 | 11282 ft | 357 kts | 18° |
| 2026-04-29 16:47 | 57.40013 | 65.31888 | 11671 ft | 376 kts | 18° |
| 2026-04-29 16:47 | 57.42519 | 65.33720 | 12065 ft | 393 kts | 18° |
| 2026-04-29 16:47 | 57.45188 | 65.35679 | 12570 ft | 409 kts | 18° |
| 2026-04-29 16:47 | 57.47982 | 65.37736 | 13326 ft | 418 kts | 18° |
| 2026-04-29 16:48 | 57.50850 | 65.39854 | 14156 ft | 428 kts | 18° |
| 2026-04-29 16:48 | 57.53809 | 65.42049 | 15076 ft | 437 kts | 18° |
| 2026-04-29 16:48 | 57.56707 | 65.44208 | 16082 ft | 442 kts | 18° |
| 2026-04-29 16:48 | 57.59615 | 65.46376 | 17008 ft | 449 kts | 17° |
| 2026-04-29 16:49 | 57.62653 | 65.48149 | 17864 ft | 452 kts | 8° |
| 2026-04-29 16:49 | 57.65815 | 65.49370 | 18738 ft | 459 kts | 6° |
| 2026-04-29 16:49 | 57.69020 | 65.50546 | 19579 ft | 466 kts | 6° |
| 2026-04-29 16:49 | 57.72234 | 65.51730 | 20459 ft | 472 kts | 5° |
| 2026-04-29 16:50 | 57.75436 | 65.52915 | 21315 ft | 477 kts | 5° |
| 2026-04-29 16:50 | 57.78717 | 65.54132 | 22094 ft | 484 kts | 5° |
| 2026-04-29 16:50 | 57.82073 | 65.55382 | 22850 ft | 491 kts | 5° |
| 2026-04-29 16:50 | 57.85456 | 65.56645 | 23592 ft | 497 kts | 5° |
| 2026-04-29 16:51 | 57.88828 | 65.57907 | 24293 ft | 504 kts | 5° |
| 2026-04-29 16:51 | 57.92281 | 65.59206 | 25110 ft | 507 kts | 5° |
| 2026-04-29 16:51 | 57.95737 | 65.60508 | 25882 ft | 511 kts | 5° |
| 2026-04-29 16:51 | 57.99284 | 65.61651 | 26520 ft | 514 kts | 360° |
| 2026-04-29 16:52 | 58.02863 | 65.62340 | 27142 ft | 519 kts | 358° |
| 2026-04-29 16:52 | 58.06495 | 65.62983 | 27867 ft | 523 kts | 358° |
| 2026-04-29 16:52 | 58.10108 | 65.63620 | 28561 ft | 527 kts | 358° |
| 2026-04-29 16:52 | 58.13838 | 65.64280 | 29139 ft | 534 kts | 358° |
| 2026-04-29 16:53 | 58.17526 | 65.64935 | 29761 ft | 538 kts | 358° |
| 2026-04-29 16:53 | 58.21316 | 65.65616 | 30520 ft | 539 kts | 359° |
| 2026-04-29 16:53 | 58.25060 | 65.66293 | 31318 ft | 537 kts | 359° |
| 2026-04-29 16:53 | 58.28844 | 65.66979 | 32090 ft | 534 kts | 359° |
| 2026-04-29 16:54 | 58.32569 | 65.67656 | 32819 ft | 530 kts | 359° |
| 2026-04-29 16:54 | 58.36257 | 65.68327 | 33448 ft | 528 kts | 359° |
| 2026-04-29 16:54 | 58.39929 | 65.68996 | 33948 ft | 526 kts | 359° |
| 2026-04-29 16:54 | 58.43581 | 65.69662 | 34347 ft | 526 kts | 359° |
| 2026-04-29 16:55 | 58.47181 | 65.70320 | 34772 ft | 526 kts | 359° |
| 2026-04-29 16:55 | 58.50825 | 65.70985 | 35006 ft | 528 kts | 359° |
| 2026-04-29 16:55 | 58.58180 | 65.72335 | 35047 ft | 529 kts | 359° |
| 2026-04-29 16:56 | 58.65529 | 65.73691 | 35056 ft | 531 kts | 359° |
| 2026-04-29 16:56 | 58.72804 | 65.75041 | 35053 ft | 531 kts | 359° |
| 2026-04-29 16:57 | 58.80135 | 65.76405 | 35054 ft | 529 kts | 359° |
| 2026-04-29 16:57 | 58.87500 | 65.77780 | 35053 ft | 532 kts | 360° |
| 2026-04-29 16:58 | 58.94820 | 65.79156 | 35057 ft | 529 kts | 359° |
| 2026-04-29 16:58 | 59.02151 | 65.80538 | 35034 ft | 530 kts | 359° |
| 2026-04-29 16:59 | 59.09471 | 65.81921 | 35047 ft | 531 kts | 360° |
| 2026-04-29 16:59 | 59.16823 | 65.83319 | 35028 ft | 532 kts | 360° |
| 2026-04-29 17:00 | 59.24199 | 65.84727 | 35033 ft | 533 kts | 0° |
| 2026-04-29 17:00 | 59.31560 | 65.86140 | 35034 ft | 531 kts | 0° |
| 2026-04-29 17:01 | 59.38927 | 65.87559 | 35022 ft | 531 kts | 0° |
| 2026-04-29 17:01 | 59.46262 | 65.88849 | 35043 ft | 531 kts | 359° |
| 2026-04-29 17:02 | 59.53628 | 65.90090 | 35026 ft | 532 kts | 359° |
| 2026-04-29 17:02 | 59.60963 | 65.91338 | 35042 ft | 531 kts | 359° |
| 2026-04-29 17:03 | 59.68307 | 65.92718 | 35033 ft | 535 kts | 4° |
| 2026-04-29 17:03 | 59.75454 | 65.96922 | 35019 ft | 542 kts | 21° |
| 2026-04-29 17:04 | 59.82236 | 66.03552 | 35025 ft | 544 kts | 25° |
| 2026-04-29 17:04 | 59.89001 | 66.10326 | 35052 ft | 544 kts | 24° |
| 2026-04-29 17:05 | 59.95739 | 66.17090 | 35039 ft | 544 kts | 24° |
| 2026-04-29 17:05 | 60.02481 | 66.23882 | 35039 ft | 544 kts | 24° |
| 2026-04-29 17:06 | 60.09219 | 66.30698 | 35044 ft | 543 kts | 24° |
| 2026-04-29 17:06 | 60.15953 | 66.37538 | 35024 ft | 544 kts | 24° |
| 2026-04-29 17:07 | 60.22694 | 66.44416 | 35008 ft | 543 kts | 24° |
| 2026-04-29 17:07 | 60.29409 | 66.51299 | 35026 ft | 542 kts | 24° |
| 2026-04-29 17:08 | 60.36141 | 66.58230 | 35026 ft | 542 kts | 24° |
| 2026-04-29 17:08 | 60.42827 | 66.65145 | 35020 ft | 542 kts | 25° |
| 2026-04-29 17:09 | 60.49575 | 66.72156 | 35030 ft | 553 kts | 25° |
| 2026-04-29 17:09 | 60.56527 | 66.79414 | 35016 ft | 570 kts | 25° |
| 2026-04-29 17:10 | 60.63567 | 66.86806 | 35019 ft | 571 kts | 25° |
| 2026-04-29 17:10 | 60.70545 | 66.94173 | 35022 ft | 571 kts | 26° |
| 2026-04-29 17:11 | 60.77600 | 67.01650 | 35014 ft | 571 kts | 25° |
| 2026-04-29 17:11 | 60.84610 | 67.09110 | 35012 ft | 571 kts | 26° |
| 2026-04-29 17:12 | 60.91612 | 67.16605 | 35014 ft | 570 kts | 25° |
| 2026-04-29 17:12 | 60.97462 | 67.22892 | 35019 ft | 570 kts | 25° |
| 2026-04-29 17:13 | 61.05642 | 67.31744 | 35016 ft | 569 kts | 26° |
| 2026-04-29 17:13 | 61.12618 | 67.39339 | 35007 ft | 569 kts | 26° |
| 2026-04-29 17:14 | 61.19609 | 67.46988 | 35003 ft | 568 kts | 26° |
| 2026-04-29 17:14 | 61.26645 | 67.54725 | 35010 ft | 569 kts | 26° |
| 2026-04-29 17:15 | 61.33624 | 67.62438 | 35014 ft | 568 kts | 26° |
| 2026-04-29 17:15 | 61.40626 | 67.70216 | 35010 ft | 569 kts | 27° |
| 2026-04-29 17:16 | 61.47610 | 67.78015 | 35009 ft | 568 kts | 27° |
| 2026-04-29 17:16 | 61.54570 | 67.85826 | 35012 ft | 568 kts | 27° |
| 2026-04-29 17:17 | 61.61496 | 67.93639 | 35005 ft | 570 kts | 27° |
| 2026-04-29 17:17 | 61.68467 | 68.01543 | 35017 ft | 569 kts | 27° |
| 2026-04-29 17:18 | 61.75412 | 68.09460 | 35007 ft | 569 kts | 27° |
| 2026-04-29 17:18 | 61.82410 | 68.17180 | 35015 ft | 567 kts | 25° |
| 2026-04-29 17:19 | 61.89402 | 68.24628 | 35017 ft | 566 kts | 25° |
| 2026-04-29 17:19 | 61.96427 | 68.32162 | 35013 ft | 567 kts | 25° |
| 2026-04-29 17:20 | 62.03412 | 68.39705 | 35015 ft | 565 kts | 25° |
| 2026-04-29 17:20 | 62.10438 | 68.47340 | 35019 ft | 565 kts | 25° |
| 2026-04-29 17:21 | 62.17422 | 68.54969 | 35003 ft | 565 kts | 25° |
| 2026-04-29 17:21 | 62.24458 | 68.62699 | 35005 ft | 565 kts | 25° |
| 2026-04-29 17:22 | 62.31415 | 68.70384 | 34999 ft | 565 kts | 26° |
| 2026-04-29 17:22 | 62.38438 | 68.78185 | 34998 ft | 565 kts | 26° |
| 2026-04-29 17:23 | 62.45407 | 68.85967 | 34998 ft | 565 kts | 26° |
| 2026-04-29 17:23 | 62.52372 | 68.93786 | 34998 ft | 564 kts | 26° |
| 2026-04-29 17:24 | 62.59309 | 69.01619 | 35002 ft | 565 kts | 26° |
| 2026-04-29 17:24 | 62.66292 | 69.09541 | 34997 ft | 564 kts | 26° |
| 2026-04-29 17:25 | 62.73190 | 69.17408 | 35005 ft | 564 kts | 26° |
| 2026-04-29 17:25 | 62.80108 | 69.25342 | 34999 ft | 562 kts | 26° |
| 2026-04-29 17:26 | 62.86998 | 69.33285 | 34999 ft | 563 kts | 26° |
| 2026-04-29 17:26 | 62.93924 | 69.41312 | 35003 ft | 563 kts | 26° |
| 2026-04-29 17:27 | 63.00862 | 69.49399 | 35003 ft | 561 kts | 26° |
| 2026-04-29 17:27 | 63.07716 | 69.57429 | 35003 ft | 561 kts | 26° |
| 2026-04-29 17:28 | 63.14595 | 69.65533 | 35003 ft | 560 kts | 27° |
| 2026-04-29 17:28 | 63.21357 | 69.73541 | 35000 ft | 561 kts | 27° |
| 2026-04-29 17:29 | 63.26794 | 69.80012 | 35000 ft | 561 kts | 27° |
| 2026-04-29 17:29 | 63.30211 | 69.84094 | 34999 ft | 560 kts | 27° |
| 2026-04-29 17:30 | 63.38248 | 69.93735 | 35006 ft | 560 kts | 27° |
| 2026-04-29 17:30 | 63.45090 | 70.01994 | 35010 ft | 560 kts | 27° |
| 2026-04-29 17:31 | 63.51915 | 70.10275 | 35012 ft | 559 kts | 27° |
| 2026-04-29 17:31 | 63.55275 | 70.14370 | 35016 ft | 546 kts | 27° |
| 2026-04-29 17:31 | 63.58548 | 70.18372 | 35009 ft | 530 kts | 27° |
| 2026-04-29 17:32 | 63.64883 | 70.26142 | 34844 ft | 513 kts | 27° |
| 2026-04-29 17:32 | 63.68028 | 70.30012 | 34153 ft | 517 kts | 27° |
| 2026-04-29 17:32 | 63.71240 | 70.33977 | 33377 ft | 524 kts | 27° |
| 2026-04-29 17:33 | 63.74470 | 70.37972 | 32524 ft | 533 kts | 27° |
| 2026-04-29 17:33 | 63.77746 | 70.42036 | 31624 ft | 541 kts | 27° |
| 2026-04-29 17:33 | 63.78998 | 70.43592 | 31235 ft | 544 kts | 27° |
| 2026-04-29 17:33 | 63.82307 | 70.47714 | 30385 ft | 544 kts | 27° |
| 2026-04-29 17:34 | 63.85623 | 70.51855 | 29813 ft | 537 kts | 27° |
| 2026-04-29 17:34 | 63.88863 | 70.55916 | 29287 ft | 530 kts | 27° |
| 2026-04-29 17:34 | 63.92062 | 70.59933 | 28735 ft | 524 kts | 27° |
| 2026-04-29 17:34 | 63.95219 | 70.63908 | 28189 ft | 518 kts | 27° |
| 2026-04-29 17:35 | 64.00388 | 70.70437 | 27266 ft | 508 kts | 29° |
| 2026-04-29 17:35 | 64.04479 | 70.75623 | 26549 ft | 500 kts | 29° |
| 2026-04-29 17:35 | 64.07468 | 70.79425 | 26008 ft | 494 kts | 29° |
| 2026-04-29 17:36 | 64.10469 | 70.83250 | 25461 ft | 488 kts | 29° |
| 2026-04-29 17:36 | 64.13410 | 70.87009 | 24914 ft | 483 kts | 29° |
| 2026-04-29 17:36 | 64.16296 | 70.90704 | 24372 ft | 478 kts | 29° |
| 2026-04-29 17:36 | 64.19007 | 70.94185 | 23865 ft | 473 kts | 29° |
| 2026-04-29 17:37 | 64.21828 | 70.97813 | 23331 ft | 468 kts | 29° |
| 2026-04-29 17:37 | 64.24580 | 71.01363 | 22798 ft | 463 kts | 29° |
| 2026-04-29 17:37 | 64.27206 | 71.04756 | 22291 ft | 458 kts | 29° |
| 2026-04-29 17:37 | 64.29991 | 71.08364 | 21755 ft | 453 kts | 29° |
| 2026-04-29 17:38 | 64.32777 | 71.11982 | 21213 ft | 448 kts | 29° |
| 2026-04-29 17:38 | 64.35545 | 71.15587 | 20660 ft | 444 kts | 29° |
| 2026-04-29 17:38 | 64.38254 | 71.19121 | 20127 ft | 439 kts | 29° |
| 2026-04-29 17:38 | 64.40939 | 71.22633 | 19585 ft | 435 kts | 30° |
| 2026-04-29 17:39 | 64.43581 | 71.26101 | 19045 ft | 431 kts | 30° |
| 2026-04-29 17:39 | 64.46217 | 71.29565 | 18519 ft | 427 kts | 30° |
| 2026-04-29 17:39 | 64.48843 | 71.33026 | 17982 ft | 423 kts | 30° |
| 2026-04-29 17:39 | 64.51421 | 71.36430 | 17455 ft | 419 kts | 30° |
| 2026-04-29 17:40 | 64.53973 | 71.39806 | 16921 ft | 416 kts | 30° |
| 2026-04-29 17:40 | 64.56496 | 71.43148 | 16379 ft | 412 kts | 30° |
| 2026-04-29 17:40 | 64.59003 | 71.46478 | 15844 ft | 408 kts | 30° |
| 2026-04-29 17:40 | 64.61494 | 71.49794 | 15310 ft | 405 kts | 30° |
| 2026-04-29 17:41 | 64.63963 | 71.53088 | 14771 ft | 401 kts | 29° |
| 2026-04-29 17:41 | 64.66421 | 71.56374 | 14235 ft | 398 kts | 29° |
| 2026-04-29 17:41 | 64.68862 | 71.59646 | 13707 ft | 394 kts | 29° |
| 2026-04-29 17:41 | 64.71262 | 71.62871 | 13168 ft | 391 kts | 29° |
| 2026-04-29 17:42 | 64.73632 | 71.66058 | 12628 ft | 387 kts | 30° |
| 2026-04-29 17:42 | 64.75957 | 71.69192 | 12095 ft | 384 kts | 30° |
| 2026-04-29 17:42 | 64.78031 | 71.71993 | 11613 ft | 380 kts | 30° |
| 2026-04-29 17:42 | 64.80327 | 71.75097 | 11084 ft | 375 kts | 29° |
| 2026-04-29 17:43 | 64.82613 | 71.78199 | 10655 ft | 368 kts | 29° |
| 2026-04-29 17:43 | 64.84799 | 71.81171 | 10560 ft | 351 kts | 29° |
| 2026-04-29 17:43 | 64.86915 | 71.84049 | 10468 ft | 335 kts | 29° |
| 2026-04-29 17:43 | 64.88913 | 71.86778 | 10354 ft | 322 kts | 29° |
| 2026-04-29 17:44 | 64.90840 | 71.89426 | 10226 ft | 309 kts | 29° |
| 2026-04-29 17:44 | 64.92697 | 71.91967 | 10100 ft | 298 kts | 29° |
| 2026-04-29 17:44 | 64.94490 | 71.94429 | 9968 ft | 287 kts | 29° |
| 2026-04-29 17:44 | 64.96236 | 71.96827 | 9610 ft | 286 kts | 29° |
| 2026-04-29 17:45 | 64.97973 | 71.99216 | 9233 ft | 286 kts | 29° |
| 2026-04-29 17:45 | 64.99719 | 72.01622 | 8886 ft | 284 kts | 29° |
| 2026-04-29 17:45 | 65.01453 | 72.04021 | 8554 ft | 282 kts | 29° |
| 2026-04-29 17:45 | 65.03173 | 72.06401 | 8232 ft | 280 kts | 29° |
| 2026-04-29 17:46 | 65.04881 | 72.08768 | 7899 ft | 278 kts | 29° |
| 2026-04-29 17:46 | 65.06570 | 72.11107 | 7569 ft | 277 kts | 29° |
| 2026-04-29 17:46 | 65.08240 | 72.13422 | 7248 ft | 275 kts | 29° |
| 2026-04-29 17:46 | 65.09927 | 72.15496 | 6918 ft | 271 kts | 15° |
| 2026-04-29 17:47 | 65.11759 | 72.16382 | 6735 ft | 267 kts | 7° |
| 2026-04-29 17:47 | 65.13602 | 72.17049 | 6592 ft | 267 kts | 6° |
| 2026-04-29 17:47 | 65.15366 | 72.17675 | 6431 ft | 267 kts | 6° |
| 2026-04-29 17:47 | 65.17189 | 72.18336 | 6257 ft | 265 kts | 6° |
| 2026-04-29 17:48 | 65.18764 | 72.18894 | 6109 ft | 265 kts | 6° |
| 2026-04-29 17:48 | 65.20608 | 72.19548 | 5931 ft | 263 kts | 6° |
| 2026-04-29 17:48 | 65.22434 | 72.20187 | 5758 ft | 263 kts | 6° |
| 2026-04-29 17:48 | 65.24274 | 72.20840 | 5585 ft | 263 kts | 6° |
| 2026-04-29 17:49 | 65.26086 | 72.21472 | 5409 ft | 262 kts | 6° |
| 2026-04-29 17:49 | 65.27917 | 72.22126 | 5236 ft | 262 kts | 6° |
| 2026-04-29 17:49 | 65.29710 | 72.22781 | 5065 ft | 261 kts | 6° |
| 2026-04-29 17:49 | 65.31504 | 72.23440 | 5010 ft | 261 kts | 6° |
| 2026-04-29 17:50 | 65.33338 | 72.24109 | 5005 ft | 262 kts | 6° |
| 2026-04-29 17:50 | 65.35210 | 72.24802 | 4790 ft | 267 kts | 7° |
| 2026-04-29 17:50 | 65.37053 | 72.25487 | 4439 ft | 267 kts | 6° |
| 2026-04-29 17:50 | 65.38890 | 72.26160 | 4208 ft | 261 kts | 6° |
| 2026-04-29 17:51 | 65.40691 | 72.26814 | 4055 ft | 257 kts | 6° |
| 2026-04-29 17:51 | 65.42517 | 72.27480 | 4035 ft | 258 kts | 6° |
| 2026-04-29 17:51 | 65.44331 | 72.28132 | 4032 ft | 258 kts | 6° |
| 2026-04-29 17:51 | 65.46138 | 72.28776 | 4028 ft | 258 kts | 6° |
| 2026-04-29 17:52 | 65.47954 | 72.29423 | 4034 ft | 258 kts | 6° |
| 2026-04-29 17:52 | 65.49123 | 72.29838 | 4033 ft | 258 kts | 6° |
| 2026-04-29 17:52 | 65.51504 | 72.30696 | 4033 ft | 258 kts | 6° |
| 2026-04-29 17:52 | 65.53286 | 72.31344 | 4033 ft | 258 kts | 6° |
| 2026-04-29 17:53 | 65.55068 | 72.31992 | 4035 ft | 258 kts | 7° |
| 2026-04-29 17:53 | 65.56841 | 72.32654 | 4031 ft | 258 kts | 6° |
| 2026-04-29 17:53 | 65.58586 | 72.33317 | 4026 ft | 247 kts | 6° |
| 2026-04-29 17:53 | 65.60242 | 72.33948 | 4027 ft | 235 kts | 7° |
| 2026-04-29 17:54 | 65.61845 | 72.34563 | 4029 ft | 229 kts | 6° |
| 2026-04-29 17:54 | 65.63397 | 72.35155 | 4026 ft | 221 kts | 6° |
| 2026-04-29 17:54 | 65.64912 | 72.35755 | 4030 ft | 218 kts | 7° |
| 2026-04-29 17:54 | 65.66396 | 72.36337 | 4032 ft | 217 kts | 7° |
| 2026-04-29 17:55 | 65.67896 | 72.36924 | 4033 ft | 216 kts | 7° |
| 2026-04-29 17:55 | 65.69383 | 72.37498 | 4030 ft | 216 kts | 7° |
| 2026-04-29 17:55 | 65.70837 | 72.38347 | 3975 ft | 214 kts | 26° |
| 2026-04-29 17:55 | 65.71939 | 72.40745 | 3578 ft | 218 kts | 61° |
| 2026-04-29 17:56 | 65.72293 | 72.44236 | 3348 ft | 207 kts | 96° |
| 2026-04-29 17:56 | 65.71845 | 72.47346 | 3252 ft | 190 kts | 128° |
| 2026-04-29 17:56 | 65.70906 | 72.49387 | 3024 ft | 181 kts | 155° |
| 2026-04-29 17:56 | 65.69739 | 72.50385 | 2728 ft | 176 kts | 165° |
| 2026-04-29 17:57 | 65.68594 | 72.51211 | 2492 ft | 164 kts | 165° |
| 2026-04-29 17:57 | 65.67529 | 72.52019 | 2205 ft | 158 kts | 165° |
| 2026-04-29 17:57 | 65.66500 | 72.52802 | 2051 ft | 149 kts | 166° |
| 2026-04-29 17:57 | 65.65501 | 72.53543 | 1984 ft | 146 kts | 168° |
| 2026-04-29 17:58 | 65.64513 | 72.53512 | 1941 ft | 144 kts | 186° |
| 2026-04-29 17:58 | 65.63560 | 72.54133 | 1888 ft | 145 kts | 155° |
| 2026-04-29 17:58 | 65.62633 | 72.55243 | 1829 ft | 146 kts | 159° |
| 2026-04-29 17:58 | 65.61690 | 72.56204 | 1768 ft | 147 kts | 160° |
| 2026-04-29 17:59 | 65.60742 | 72.57156 | 1735 ft | 146 kts | 160° |
| 2026-04-29 17:59 | 65.59802 | 72.58114 | 1728 ft | 147 kts | 159° |
| 2026-04-29 17:59 | 65.58875 | 72.59059 | 1729 ft | 146 kts | 160° |
| 2026-04-29 17:59 | 65.57938 | 72.60008 | 1731 ft | 146 kts | 160° |
| 2026-04-29 18:00 | 65.56983 | 72.60973 | 1604 ft | 147 kts | 159° |
| 2026-04-29 18:00 | 65.56059 | 72.61918 | 1429 ft | 145 kts | 159° |
| 2026-04-29 18:00 | 65.55125 | 72.62864 | 1250 ft | 145 kts | 158° |
| 2026-04-29 18:00 | 65.54198 | 72.63805 | 1069 ft | 144 kts | 158° |
| 2026-04-29 18:01 | 65.53272 | 72.64744 | 891 ft | 143 kts | 158° |
| 2026-04-29 18:01 | 65.52335 | 72.65694 | 705 ft | 143 kts | 158° |
| 2026-04-29 18:01 | 65.51423 | 72.66638 | 506 ft | 142 kts | 159° |
| 2026-04-29 18:01 | 65.50497 | 72.67522 | 309 ft | 139 kts | 159° |
| 2026-04-29 18:02 | 65.49678 | 72.68343 | 192 ft | 144 kts | 158° |
| 2026-04-29 18:02 | 65.48758 | 72.69302 | 63 ft | 134 kts | 157° |
| 2026-04-29 18:02 | 65.48043 | 72.70028 | 63 ft | 99 kts | 158° |
| 2026-04-29 18:02 | 65.47608 | 72.70465 | 63 ft | 48 kts | 157° |
| 2026-04-29 18:03 | 65.47362 | 72.70712 | 63 ft | 32 kts | 158° |
| 2026-04-29 18:03 | 65.47199 | 72.70840 | 63 ft | 18 kts | 179° |
| 2026-04-29 18:03 | 65.47185 | 72.70899 | 63 ft | 8 kts | 359° |
| 2026-04-29 18:03 | 65.47269 | 72.70808 | 63 ft | 18 kts | 335° |
| 2026-04-29 18:04 | 65.47423 | 72.70651 | 63 ft | 28 kts | 337° |
| 2026-04-29 18:04 | 65.47635 | 72.70439 | 63 ft | 37 kts | 337° |
| 2026-04-29 18:04 | 65.47887 | 72.70180 | 63 ft | 39 kts | 338° |
| 2026-04-29 18:04 | 65.48111 | 72.69956 | 63 ft | 20 kts | 338° |
| 2026-04-29 18:05 | 65.48139 | 72.69695 | 63 ft | 18 kts | 249° |
| 2026-04-29 18:05 | 65.48124 | 72.69608 | 63 ft | 0 kts | 247° |
| 2026-04-29 18:05 | 65.48115 | 72.69550 | 63 ft | 8 kts | 255° |
| 2026-04-29 18:05 | 65.48153 | 72.69411 | 63 ft | 10 kts | 329° |
| 2026-04-29 18:06 | 65.48171 | 72.69303 | 63 ft | 3 kts | 266° |
| 2026-04-29 18:06 | 65.48164 | 72.69241 | 63 ft | 2 kts | 249° |